sensor_id;sensor_type;location;lat;lon;timestamp;P1;durP1;ratioP1;P2;durP2;ratioP2
79585;SDS011;69054;50.866;4.636;2023-11-18T00:01:14;37.10;;;20.02;;
79585;SDS011;69054;50.866;4.636;2023-11-18T00:03:40;38.17;;;20.13;;
79585;SDS011;69054;50.866;4.636;2023-11-18T00:06:05;39.00;;;19.88;;
79585;SDS011;69054;50.866;4.636;2023-11-18T00:08:31;37.30;;;18.50;;
79585;SDS011;69054;50.866;4.636;2023-11-18T00:10:56;37.92;;;19.73;;
79585;SDS011;69054;50.866;4.636;2023-11-18T00:13:21;36.63;;;19.63;;
79585;SDS011;69054;50.866;4.636;2023-11-18T00:15:47;36.58;;;19.40;;
79585;SDS011;69054;50.866;4.636;2023-11-18T00:18:13;37.78;;;19.60;;
79585;SDS011;69054;50.866;4.636;2023-11-18T00:20:38;40.97;;;20.13;;
79585;SDS011;69054;50.866;4.636;2023-11-18T00:23:04;34.13;;;19.05;;
79585;SDS011;69054;50.866;4.636;2023-11-18T00:25:29;36.05;;;19.48;;
79585;SDS011;69054;50.866;4.636;2023-11-18T00:27:55;38.15;;;19.60;;
79585;SDS011;69054;50.866;4.636;2023-11-18T00:30:20;38.13;;;19.70;;
79585;SDS011;69054;50.866;4.636;2023-11-18T00:32:45;35.38;;;18.55;;
79585;SDS011;69054;50.866;4.636;2023-11-18T00:35:11;36.50;;;18.40;;
79585;SDS011;69054;50.866;4.636;2023-11-18T00:37:36;37.17;;;19.45;;
79585;SDS011;69054;50.866;4.636;2023-11-18T00:40:02;38.22;;;19.10;;
79585;SDS011;69054;50.866;4.636;2023-11-18T00:42:28;37.83;;;19.77;;
79585;SDS011;69054;50.866;4.636;2023-11-18T00:44:53;43.17;;;20.90;;
79585;SDS011;69054;50.866;4.636;2023-11-18T00:47:20;36.30;;;19.48;;
79585;SDS011;69054;50.866;4.636;2023-11-18T00:49:48;36.08;;;19.45;;
79585;SDS011;69054;50.866;4.636;2023-11-18T00:52:14;34.15;;;18.67;;
79585;SDS011;69054;50.866;4.636;2023-11-18T00:54:40;33.38;;;17.73;;
79585;SDS011;69054;50.866;4.636;2023-11-18T00:57:05;38.20;;;19.98;;
79585;SDS011;69054;50.866;4.636;2023-11-18T00:59:30;43.90;;;20.50;;
79585;SDS011;69054;50.866;4.636;2023-11-18T01:01:56;35.28;;;19.17;;
79585;SDS011;69054;50.866;4.636;2023-11-18T01:04:21;37.58;;;19.60;;
79585;SDS011;69054;50.866;4.636;2023-11-18T01:06:47;35.22;;;20.00;;
79585;SDS011;69054;50.866;4.636;2023-11-18T01:09:13;41.42;;;20.25;;
79585;SDS011;69054;50.866;4.636;2023-11-18T01:11:41;33.97;;;19.38;;
79585;SDS011;69054;50.866;4.636;2023-11-18T01:14:06;37.25;;;19.27;;
79585;SDS011;69054;50.866;4.636;2023-11-18T01:16:32;39.10;;;20.00;;
79585;SDS011;69054;50.866;4.636;2023-11-18T01:18:59;33.08;;;19.10;;
79585;SDS011;69054;50.866;4.636;2023-11-18T01:21:24;35.20;;;20.17;;
79585;SDS011;69054;50.866;4.636;2023-11-18T01:23:50;37.63;;;20.10;;
79585;SDS011;69054;50.866;4.636;2023-11-18T01:26:15;34.88;;;19.75;;
79585;SDS011;69054;50.866;4.636;2023-11-18T01:28:41;36.70;;;19.95;;
79585;SDS011;69054;50.866;4.636;2023-11-18T01:31:07;38.67;;;20.48;;
79585;SDS011;69054;50.866;4.636;2023-11-18T01:33:39;33.15;;;19.63;;
79585;SDS011;69054;50.866;4.636;2023-11-18T01:36:08;33.75;;;18.77;;
79585;SDS011;69054;50.866;4.636;2023-11-18T01:38:37;33.15;;;17.85;;
79585;SDS011;69054;50.866;4.636;2023-11-18T01:41:05;35.88;;;18.42;;
79585;SDS011;69054;50.866;4.636;2023-11-18T01:43:32;32.25;;;18.83;;
79585;SDS011;69054;50.866;4.636;2023-11-18T01:45:58;35.50;;;19.42;;
79585;SDS011;69054;50.866;4.636;2023-11-18T01:48:27;31.08;;;18.42;;
79585;SDS011;69054;50.866;4.636;2023-11-18T01:50:54;39.30;;;19.23;;
79585;SDS011;69054;50.866;4.636;2023-11-18T01:53:22;35.13;;;19.95;;
79585;SDS011;69054;50.866;4.636;2023-11-18T01:55:49;32.13;;;19.15;;
79585;SDS011;69054;50.866;4.636;2023-11-18T01:58:15;34.17;;;18.08;;
79585;SDS011;69054;50.866;4.636;2023-11-18T02:00:44;32.97;;;17.50;;
79585;SDS011;69054;50.866;4.636;2023-11-18T02:03:14;33.45;;;19.25;;
79585;SDS011;69054;50.866;4.636;2023-11-18T02:05:39;36.20;;;19.92;;
79585;SDS011;69054;50.866;4.636;2023-11-18T02:08:07;31.98;;;17.80;;
79585;SDS011;69054;50.866;4.636;2023-11-18T02:10:45;32.10;;;17.25;;
79585;SDS011;69054;50.866;4.636;2023-11-18T02:13:18;34.45;;;17.95;;
79585;SDS011;69054;50.866;4.636;2023-11-18T02:15:54;34.92;;;18.55;;
79585;SDS011;69054;50.866;4.636;2023-11-18T02:18:30;34.80;;;17.92;;
79585;SDS011;69054;50.866;4.636;2023-11-18T02:20:56;31.50;;;17.83;;
79585;SDS011;69054;50.866;4.636;2023-11-18T02:23:23;32.15;;;17.70;;
79585;SDS011;69054;50.866;4.636;2023-11-18T02:25:50;32.03;;;17.50;;
79585;SDS011;69054;50.866;4.636;2023-11-18T02:28:15;32.38;;;17.20;;
79585;SDS011;69054;50.866;4.636;2023-11-18T02:30:41;33.28;;;16.67;;
79585;SDS011;69054;50.866;4.636;2023-11-18T02:33:12;31.13;;;15.98;;
79585;SDS011;69054;50.866;4.636;2023-11-18T02:36:13;31.50;;;14.93;;
79585;SDS011;69054;50.866;4.636;2023-11-18T02:38:50;31.35;;;16.73;;
79585;SDS011;69054;50.866;4.636;2023-11-18T02:41:16;33.78;;;16.30;;
79585;SDS011;69054;50.866;4.636;2023-11-18T02:43:45;33.42;;;17.25;;
79585;SDS011;69054;50.866;4.636;2023-11-18T02:46:12;33.75;;;17.75;;
79585;SDS011;69054;50.866;4.636;2023-11-18T02:48:38;35.03;;;18.15;;
79585;SDS011;69054;50.866;4.636;2023-11-18T02:51:04;34.10;;;16.20;;
79585;SDS011;69054;50.866;4.636;2023-11-18T02:53:29;27.80;;;15.85;;
79585;SDS011;69054;50.866;4.636;2023-11-18T02:55:55;29.15;;;16.13;;
79585;SDS011;69054;50.866;4.636;2023-11-18T02:58:29;30.33;;;16.92;;
79585;SDS011;69054;50.866;4.636;2023-11-18T03:00:54;31.85;;;16.58;;
79585;SDS011;69054;50.866;4.636;2023-11-18T03:03:20;31.20;;;17.60;;
79585;SDS011;69054;50.866;4.636;2023-11-18T03:05:45;32.65;;;17.48;;
79585;SDS011;69054;50.866;4.636;2023-11-18T03:08:13;28.73;;;14.32;;
79585;SDS011;69054;50.866;4.636;2023-11-18T03:10:39;29.20;;;16.15;;
79585;SDS011;69054;50.866;4.636;2023-11-18T03:13:05;29.95;;;15.68;;
79585;SDS011;69054;50.866;4.636;2023-11-18T03:15:31;27.10;;;14.43;;
79585;SDS011;69054;50.866;4.636;2023-11-18T03:17:57;26.17;;;13.93;;
79585;SDS011;69054;50.866;4.636;2023-11-18T03:20:22;28.63;;;16.85;;
79585;SDS011;69054;50.866;4.636;2023-11-18T03:22:48;32.10;;;15.23;;
79585;SDS011;69054;50.866;4.636;2023-11-18T03:25:16;30.77;;;15.10;;
79585;SDS011;69054;50.866;4.636;2023-11-18T03:27:42;26.00;;;13.63;;
79585;SDS011;69054;50.866;4.636;2023-11-18T03:30:09;28.90;;;14.90;;
79585;SDS011;69054;50.866;4.636;2023-11-18T03:32:35;27.75;;;14.23;;
79585;SDS011;69054;50.866;4.636;2023-11-18T03:35:02;25.45;;;13.90;;
79585;SDS011;69054;50.866;4.636;2023-11-18T03:37:29;28.02;;;14.52;;
79585;SDS011;69054;50.866;4.636;2023-11-18T03:39:54;31.52;;;13.88;;
79585;SDS011;69054;50.866;4.636;2023-11-18T03:42:20;27.17;;;15.45;;
79585;SDS011;69054;50.866;4.636;2023-11-18T03:44:47;28.05;;;14.30;;
79585;SDS011;69054;50.866;4.636;2023-11-18T03:47:12;24.05;;;14.35;;
79585;SDS011;69054;50.866;4.636;2023-11-18T03:49:39;27.98;;;13.35;;
79585;SDS011;69054;50.866;4.636;2023-11-18T03:52:05;26.40;;;14.48;;
79585;SDS011;69054;50.866;4.636;2023-11-18T03:54:31;28.17;;;12.68;;
79585;SDS011;69054;50.866;4.636;2023-11-18T03:56:56;25.90;;;13.57;;
79585;SDS011;69054;50.866;4.636;2023-11-18T03:59:21;27.42;;;12.57;;
79585;SDS011;69054;50.866;4.636;2023-11-18T04:01:47;29.42;;;13.02;;
79585;SDS011;69054;50.866;4.636;2023-11-18T04:04:14;26.85;;;12.82;;
79585;SDS011;69054;50.866;4.636;2023-11-18T04:06:39;24.27;;;12.77;;
79585;SDS011;69054;50.866;4.636;2023-11-18T04:09:04;23.85;;;12.40;;
79585;SDS011;69054;50.866;4.636;2023-11-18T04:11:31;21.20;;;11.65;;
79585;SDS011;69054;50.866;4.636;2023-11-18T04:13:56;25.83;;;11.75;;
79585;SDS011;69054;50.866;4.636;2023-11-18T04:16:21;26.38;;;12.02;;
79585;SDS011;69054;50.866;4.636;2023-11-18T04:18:47;24.33;;;12.85;;
79585;SDS011;69054;50.866;4.636;2023-11-18T04:21:12;21.85;;;11.13;;
79585;SDS011;69054;50.866;4.636;2023-11-18T04:23:38;25.80;;;11.52;;
79585;SDS011;69054;50.866;4.636;2023-11-18T04:26:05;23.85;;;12.30;;
79585;SDS011;69054;50.866;4.636;2023-11-18T04:28:35;21.58;;;11.45;;
79585;SDS011;69054;50.866;4.636;2023-11-18T04:31:01;21.92;;;11.05;;
79585;SDS011;69054;50.866;4.636;2023-11-18T04:33:27;21.65;;;10.63;;
79585;SDS011;69054;50.866;4.636;2023-11-18T04:35:54;23.75;;;11.57;;
79585;SDS011;69054;50.866;4.636;2023-11-18T04:38:22;25.00;;;13.00;;
79585;SDS011;69054;50.866;4.636;2023-11-18T04:40:48;24.23;;;11.13;;
79585;SDS011;69054;50.866;4.636;2023-11-18T04:43:13;20.92;;;10.35;;
79585;SDS011;69054;50.866;4.636;2023-11-18T04:45:40;21.20;;;10.02;;
79585;SDS011;69054;50.866;4.636;2023-11-18T04:48:06;23.13;;;10.55;;
79585;SDS011;69054;50.866;4.636;2023-11-18T04:50:31;20.75;;;10.90;;
79585;SDS011;69054;50.866;4.636;2023-11-18T04:52:58;21.63;;;11.02;;
79585;SDS011;69054;50.866;4.636;2023-11-18T04:55:23;19.60;;;10.10;;
79585;SDS011;69054;50.866;4.636;2023-11-18T04:57:49;22.73;;;9.93;;
79585;SDS011;69054;50.866;4.636;2023-11-18T05:00:14;23.45;;;10.38;;
79585;SDS011;69054;50.866;4.636;2023-11-18T05:02:42;20.60;;;10.02;;
79585;SDS011;69054;50.866;4.636;2023-11-18T05:05:09;17.23;;;10.65;;
79585;SDS011;69054;50.866;4.636;2023-11-18T05:07:36;20.33;;;9.85;;
79585;SDS011;69054;50.866;4.636;2023-11-18T05:10:01;26.60;;;9.55;;
79585;SDS011;69054;50.866;4.636;2023-11-18T05:12:28;18.45;;;9.75;;
79585;SDS011;69054;50.866;4.636;2023-11-18T05:14:54;16.98;;;9.18;;
79585;SDS011;69054;50.866;4.636;2023-11-18T05:17:21;18.50;;;9.85;;
79585;SDS011;69054;50.866;4.636;2023-11-18T05:19:47;18.08;;;9.15;;
79585;SDS011;69054;50.866;4.636;2023-11-18T05:22:13;20.33;;;9.13;;
79585;SDS011;69054;50.866;4.636;2023-11-18T05:24:38;15.82;;;8.68;;
79585;SDS011;69054;50.866;4.636;2023-11-18T05:27:04;16.15;;;8.00;;
79585;SDS011;69054;50.866;4.636;2023-11-18T05:29:30;17.58;;;9.07;;
79585;SDS011;69054;50.866;4.636;2023-11-18T05:31:55;19.38;;;8.27;;
79585;SDS011;69054;50.866;4.636;2023-11-18T05:34:21;15.30;;;7.93;;
79585;SDS011;69054;50.866;4.636;2023-11-18T05:36:47;17.10;;;8.25;;
79585;SDS011;69054;50.866;4.636;2023-11-18T05:39:13;16.30;;;8.35;;
79585;SDS011;69054;50.866;4.636;2023-11-18T05:41:40;15.70;;;7.13;;
79585;SDS011;69054;50.866;4.636;2023-11-18T05:44:06;18.65;;;7.90;;
79585;SDS011;69054;50.866;4.636;2023-11-18T05:46:34;18.65;;;7.55;;
79585;SDS011;69054;50.866;4.636;2023-11-18T05:49:03;13.73;;;6.80;;
79585;SDS011;69054;50.866;4.636;2023-11-18T05:51:32;14.27;;;7.00;;
79585;SDS011;69054;50.866;4.636;2023-11-18T05:53:58;17.00;;;6.78;;
79585;SDS011;69054;50.866;4.636;2023-11-18T05:56:23;12.77;;;6.82;;
79585;SDS011;69054;50.866;4.636;2023-11-18T05:58:50;17.08;;;6.93;;
79585;SDS011;69054;50.866;4.636;2023-11-18T06:01:15;248.27;;;62.28;;
79585;SDS011;69054;50.866;4.636;2023-11-18T06:03:42;540.17;;;178.95;;
79585;SDS011;69054;50.866;4.636;2023-11-18T06:06:09;445.48;;;124.35;;
79585;SDS011;69054;50.866;4.636;2023-11-18T06:08:36;84.63;;;32.20;;
79585;SDS011;69054;50.866;4.636;2023-11-18T06:11:06;47.05;;;18.13;;
79585;SDS011;69054;50.866;4.636;2023-11-18T06:13:45;52.67;;;22.98;;
79585;SDS011;69054;50.866;4.636;2023-11-18T06:16:24;39.55;;;18.08;;
79585;SDS011;69054;50.866;4.636;2023-11-18T06:18:52;25.10;;;13.40;;
79585;SDS011;69054;50.866;4.636;2023-11-18T06:21:21;52.85;;;34.00;;
79585;SDS011;69054;50.866;4.636;2023-11-18T06:23:58;29.05;;;17.65;;
79585;SDS011;69054;50.866;4.636;2023-11-18T06:26:25;12.25;;;4.40;;
79585;SDS011;69054;50.866;4.636;2023-11-18T06:28:51;23.25;;;13.40;;
79585;SDS011;69054;50.866;4.636;2023-11-18T06:31:18;33.67;;;21.48;;
79585;SDS011;69054;50.866;4.636;2023-11-18T06:33:49;26.05;;;10.68;;
79585;SDS011;69054;50.866;4.636;2023-11-18T06:38:41;22.88;;;10.63;;
79585;SDS011;69054;50.866;4.636;2023-11-18T06:41:08;19.20;;;10.02;;
79585;SDS011;69054;50.866;4.636;2023-11-18T06:43:37;50.13;;;36.90;;
79585;SDS011;69054;50.866;4.636;2023-11-18T06:46:26;36.38;;;22.20;;
79585;SDS011;69054;50.866;4.636;2023-11-18T06:48:54;10.23;;;5.32;;
79585;SDS011;69054;50.866;4.636;2023-11-18T06:51:23;8.05;;;3.40;;
79585;SDS011;69054;50.866;4.636;2023-11-18T06:53:50;6.50;;;3.45;;
79585;SDS011;69054;50.866;4.636;2023-11-18T06:56:16;25.70;;;14.55;;
79585;SDS011;69054;50.866;4.636;2023-11-18T06:58:43;7.90;;;4.95;;
79585;SDS011;69054;50.866;4.636;2023-11-18T07:01:09;10.80;;;6.07;;
79585;SDS011;69054;50.866;4.636;2023-11-18T07:03:38;11.65;;;7.65;;
79585;SDS011;69054;50.866;4.636;2023-11-18T07:06:04;7.35;;;3.70;;
79585;SDS011;69054;50.866;4.636;2023-11-18T07:08:31;14.18;;;5.20;;
79585;SDS011;69054;50.866;4.636;2023-11-18T07:10:57;28.52;;;21.42;;
79585;SDS011;69054;50.866;4.636;2023-11-18T07:13:22;36.88;;;27.88;;
79585;SDS011;69054;50.866;4.636;2023-11-18T07:15:48;7.95;;;3.63;;
79585;SDS011;69054;50.866;4.636;2023-11-18T07:18:15;8.65;;;3.78;;
79585;SDS011;69054;50.866;4.636;2023-11-18T07:20:41;7.13;;;4.07;;
79585;SDS011;69054;50.866;4.636;2023-11-18T07:23:07;12.30;;;8.48;;
79585;SDS011;69054;50.866;4.636;2023-11-18T07:25:33;6.03;;;3.25;;
79585;SDS011;69054;50.866;4.636;2023-11-18T07:27:59;9.07;;;4.63;;
79585;SDS011;69054;50.866;4.636;2023-11-18T07:30:24;10.43;;;7.20;;
79585;SDS011;69054;50.866;4.636;2023-11-18T07:32:50;7.90;;;4.97;;
79585;SDS011;69054;50.866;4.636;2023-11-18T07:35:16;11.60;;;5.63;;
79585;SDS011;69054;50.866;4.636;2023-11-18T07:37:42;10.40;;;5.65;;
79585;SDS011;69054;50.866;4.636;2023-11-18T07:40:08;11.88;;;6.68;;
79585;SDS011;69054;50.866;4.636;2023-11-18T07:42:37;11.38;;;3.97;;
79585;SDS011;69054;50.866;4.636;2023-11-18T07:45:03;10.13;;;3.50;;
79585;SDS011;69054;50.866;4.636;2023-11-18T07:47:29;17.55;;;14.43;;
79585;SDS011;69054;50.866;4.636;2023-11-18T07:49:59;7.00;;;3.58;;
79585;SDS011;69054;50.866;4.636;2023-11-18T07:52:25;16.77;;;15.05;;
79585;SDS011;69054;50.866;4.636;2023-11-18T07:54:52;17.02;;;13.20;;
79585;SDS011;69054;50.866;4.636;2023-11-18T07:57:18;15.35;;;7.47;;
79585;SDS011;69054;50.866;4.636;2023-11-18T07:59:43;13.38;;;7.03;;
79585;SDS011;69054;50.866;4.636;2023-11-18T08:02:09;4.97;;;2.95;;
79585;SDS011;69054;50.866;4.636;2023-11-18T08:04:36;12.07;;;6.25;;
79585;SDS011;69054;50.866;4.636;2023-11-18T08:07:01;4.30;;;2.38;;
79585;SDS011;69054;50.866;4.636;2023-11-18T08:09:29;6.75;;;3.75;;
79585;SDS011;69054;50.866;4.636;2023-11-18T08:11:56;13.05;;;6.70;;
79585;SDS011;69054;50.866;4.636;2023-11-18T08:14:22;12.98;;;4.82;;
79585;SDS011;69054;50.866;4.636;2023-11-18T08:16:47;9.38;;;4.07;;
79585;SDS011;69054;50.866;4.636;2023-11-18T08:19:14;8.68;;;4.50;;
79585;SDS011;69054;50.866;4.636;2023-11-18T08:21:40;10.55;;;4.20;;
79585;SDS011;69054;50.866;4.636;2023-11-18T08:24:06;6.65;;;3.22;;
79585;SDS011;69054;50.866;4.636;2023-11-18T08:26:33;9.93;;;4.07;;
79585;SDS011;69054;50.866;4.636;2023-11-18T08:29:01;9.80;;;4.88;;
79585;SDS011;69054;50.866;4.636;2023-11-18T08:31:27;9.75;;;4.63;;
79585;SDS011;69054;50.866;4.636;2023-11-18T08:33:52;5.97;;;3.30;;
79585;SDS011;69054;50.866;4.636;2023-11-18T08:36:19;9.55;;;3.83;;
79585;SDS011;69054;50.866;4.636;2023-11-18T08:38:47;8.25;;;3.38;;
79585;SDS011;69054;50.866;4.636;2023-11-18T08:41:13;11.13;;;4.20;;
79585;SDS011;69054;50.866;4.636;2023-11-18T08:43:38;8.77;;;5.03;;
79585;SDS011;69054;50.866;4.636;2023-11-18T08:46:06;12.75;;;8.02;;
79585;SDS011;69054;50.866;4.636;2023-11-18T08:48:32;11.07;;;5.95;;
79585;SDS011;69054;50.866;4.636;2023-11-18T08:50:59;6.43;;;4.10;;
79585;SDS011;69054;50.866;4.636;2023-11-18T08:53:26;6.70;;;3.95;;
79585;SDS011;69054;50.866;4.636;2023-11-18T08:55:52;7.85;;;3.35;;
79585;SDS011;69054;50.866;4.636;2023-11-18T08:58:21;12.75;;;5.82;;
79585;SDS011;69054;50.866;4.636;2023-11-18T09:00:53;5.30;;;3.13;;
79585;SDS011;69054;50.866;4.636;2023-11-18T09:03:20;9.32;;;4.15;;
79585;SDS011;69054;50.866;4.636;2023-11-18T09:05:52;20.25;;;14.18;;
79585;SDS011;69054;50.866;4.636;2023-11-18T09:08:23;9.02;;;4.97;;
79585;SDS011;69054;50.866;4.636;2023-11-18T09:10:49;43.00;;;29.35;;
79585;SDS011;69054;50.866;4.636;2023-11-18T09:13:18;19.15;;;11.00;;
79585;SDS011;69054;50.866;4.636;2023-11-18T09:15:48;11.73;;;6.57;;
79585;SDS011;69054;50.866;4.636;2023-11-18T09:18:14;5.38;;;3.58;;
79585;SDS011;69054;50.866;4.636;2023-11-18T09:20:43;8.15;;;4.05;;
79585;SDS011;69054;50.866;4.636;2023-11-18T09:23:08;8.60;;;6.72;;
79585;SDS011;69054;50.866;4.636;2023-11-18T09:25:34;9.93;;;5.68;;
79585;SDS011;69054;50.866;4.636;2023-11-18T09:27:59;10.30;;;4.38;;
79585;SDS011;69054;50.866;4.636;2023-11-18T09:30:25;7.03;;;3.58;;
79585;SDS011;69054;50.866;4.636;2023-11-18T09:32:50;10.82;;;6.90;;
79585;SDS011;69054;50.866;4.636;2023-11-18T09:35:16;7.28;;;4.93;;
79585;SDS011;69054;50.866;4.636;2023-11-18T09:37:44;13.20;;;5.10;;
79585;SDS011;69054;50.866;4.636;2023-11-18T09:40:13;7.65;;;4.13;;
79585;SDS011;69054;50.866;4.636;2023-11-18T09:42:39;7.43;;;4.38;;
79585;SDS011;69054;50.866;4.636;2023-11-18T09:45:07;10.48;;;5.57;;
79585;SDS011;69054;50.866;4.636;2023-11-18T09:47:38;4.68;;;2.90;;
79585;SDS011;69054;50.866;4.636;2023-11-18T09:50:08;7.47;;;3.40;;
79585;SDS011;69054;50.866;4.636;2023-11-18T09:52:45;7.93;;;4.68;;
79585;SDS011;69054;50.866;4.636;2023-11-18T09:55:26;6.65;;;3.40;;
79585;SDS011;69054;50.866;4.636;2023-11-18T09:58:04;12.25;;;6.47;;
79585;SDS011;69054;50.866;4.636;2023-11-18T10:00:38;11.13;;;4.63;;
79585;SDS011;69054;50.866;4.636;2023-11-18T10:03:07;11.35;;;4.43;;
79585;SDS011;69054;50.866;4.636;2023-11-18T10:05:35;10.32;;;5.07;;
79585;SDS011;69054;50.866;4.636;2023-11-18T10:08:04;12.35;;;6.82;;
79585;SDS011;69054;50.866;4.636;2023-11-18T10:10:33;9.05;;;4.30;;
79585;SDS011;69054;50.866;4.636;2023-11-18T10:13:02;12.82;;;7.75;;
79585;SDS011;69054;50.866;4.636;2023-11-18T10:15:33;9.82;;;5.30;;
79585;SDS011;69054;50.866;4.636;2023-11-18T10:17:59;6.60;;;4.22;;
79585;SDS011;69054;50.866;4.636;2023-11-18T10:20:44;8.93;;;5.68;;
79585;SDS011;69054;50.866;4.636;2023-11-18T10:23:10;14.13;;;6.85;;
79585;SDS011;69054;50.866;4.636;2023-11-18T10:25:53;14.73;;;12.75;;
79585;SDS011;69054;50.866;4.636;2023-11-18T10:28:22;21.02;;;15.38;;
79585;SDS011;69054;50.866;4.636;2023-11-18T10:30:56;13.90;;;9.13;;
79585;SDS011;69054;50.866;4.636;2023-11-18T10:33:28;10.00;;;7.82;;
79585;SDS011;69054;50.866;4.636;2023-11-18T10:35:58;5.45;;;4.18;;
79585;SDS011;69054;50.866;4.636;2023-11-18T10:38:28;4.63;;;3.38;;
79585;SDS011;69054;50.866;4.636;2023-11-18T10:40:55;9.32;;;6.15;;
79585;SDS011;69054;50.866;4.636;2023-11-18T10:43:22;8.15;;;5.13;;
79585;SDS011;69054;50.866;4.636;2023-11-18T10:46:06;8.68;;;4.25;;
79585;SDS011;69054;50.866;4.636;2023-11-18T10:48:42;6.13;;;3.22;;
79585;SDS011;69054;50.866;4.636;2023-11-18T10:51:15;9.07;;;3.50;;
79585;SDS011;69054;50.866;4.636;2023-11-18T10:53:44;7.55;;;4.47;;
79585;SDS011;69054;50.866;4.636;2023-11-18T10:56:21;7.97;;;3.70;;
79585;SDS011;69054;50.866;4.636;2023-11-18T10:58:57;6.55;;;4.10;;
79585;SDS011;69054;50.866;4.636;2023-11-18T11:01:30;3.13;;;2.42;;
79585;SDS011;69054;50.866;4.636;2023-11-18T11:03:57;9.30;;;5.82;;
79585;SDS011;69054;50.866;4.636;2023-11-18T11:06:23;7.57;;;5.40;;
79585;SDS011;69054;50.866;4.636;2023-11-18T11:08:56;5.15;;;3.53;;
79585;SDS011;69054;50.866;4.636;2023-11-18T11:11:24;6.32;;;3.47;;
79585;SDS011;69054;50.866;4.636;2023-11-18T11:13:57;7.13;;;5.38;;
79585;SDS011;69054;50.866;4.636;2023-11-18T11:16:45;26.52;;;23.73;;
79585;SDS011;69054;50.866;4.636;2023-11-18T11:19:18;7.45;;;2.72;;
79585;SDS011;69054;50.866;4.636;2023-11-18T11:22:04;6.18;;;4.05;;
79585;SDS011;69054;50.866;4.636;2023-11-18T11:27:22;4.43;;;3.15;;
79585;SDS011;69054;50.866;4.636;2023-11-18T11:30:16;5.97;;;3.28;;
79585;SDS011;69054;50.866;4.636;2023-11-18T11:35:19;5.35;;;3.05;;
79585;SDS011;69054;50.866;4.636;2023-11-18T11:37:56;9.43;;;5.82;;
79585;SDS011;69054;50.866;4.636;2023-11-18T11:40:28;8.20;;;6.05;;
79585;SDS011;69054;50.866;4.636;2023-11-18T11:42:54;6.68;;;3.42;;
79585;SDS011;69054;50.866;4.636;2023-11-18T11:45:24;4.75;;;4.13;;
79585;SDS011;69054;50.866;4.636;2023-11-18T11:47:54;6.00;;;3.70;;
79585;SDS011;69054;50.866;4.636;2023-11-18T11:50:43;8.07;;;3.30;;
79585;SDS011;69054;50.866;4.636;2023-11-18T11:53:16;5.65;;;4.22;;
79585;SDS011;69054;50.866;4.636;2023-11-18T11:55:49;6.22;;;3.20;;
79585;SDS011;69054;50.866;4.636;2023-11-18T11:58:28;4.07;;;2.25;;
79585;SDS011;69054;50.866;4.636;2023-11-18T12:00:56;4.75;;;2.63;;
79585;SDS011;69054;50.866;4.636;2023-11-18T12:03:43;3.67;;;2.78;;
79585;SDS011;69054;50.866;4.636;2023-11-18T12:06:13;12.98;;;5.95;;
79585;SDS011;69054;50.866;4.636;2023-11-18T12:08:57;4.40;;;2.28;;
79585;SDS011;69054;50.866;4.636;2023-11-18T12:11:23;5.38;;;3.25;;
79585;SDS011;69054;50.866;4.636;2023-11-18T12:14:02;5.40;;;3.03;;
79585;SDS011;69054;50.866;4.636;2023-11-18T12:19:46;4.00;;;2.83;;
79585;SDS011;69054;50.866;4.636;2023-11-18T12:32:59;3.17;;;1.50;;
79585;SDS011;69054;50.866;4.636;2023-11-18T12:44:14;3.55;;;2.42;;
79585;SDS011;69054;50.866;4.636;2023-11-18T12:49:43;5.20;;;2.20;;
79585;SDS011;69054;50.866;4.636;2023-11-18T12:52:15;3.30;;;2.30;;
79585;SDS011;69054;50.866;4.636;2023-11-18T12:54:43;3.33;;;2.05;;
79585;SDS011;69054;50.866;4.636;2023-11-18T12:57:09;2.75;;;1.55;;
79585;SDS011;69054;50.866;4.636;2023-11-18T12:59:39;5.15;;;4.38;;
79585;SDS011;69054;50.866;4.636;2023-11-18T13:02:08;3.45;;;2.33;;
79585;SDS011;69054;50.866;4.636;2023-11-18T13:04:47;3.78;;;1.77;;
79585;SDS011;69054;50.866;4.636;2023-11-18T13:07:17;3.80;;;3.22;;
79585;SDS011;69054;50.866;4.636;2023-11-18T13:09:43;5.70;;;5.10;;
79585;SDS011;69054;50.866;4.636;2023-11-18T13:12:11;12.48;;;11.40;;
79585;SDS011;69054;50.866;4.636;2023-11-18T13:14:42;3.67;;;3.38;;
79585;SDS011;69054;50.866;4.636;2023-11-18T13:17:09;3.65;;;2.45;;
79585;SDS011;69054;50.866;4.636;2023-11-18T13:19:36;3.03;;;2.15;;
79585;SDS011;69054;50.866;4.636;2023-11-18T13:22:03;1.90;;;1.20;;
79585;SDS011;69054;50.866;4.636;2023-11-18T13:24:30;3.78;;;1.75;;
79585;SDS011;69054;50.866;4.636;2023-11-18T13:26:56;2.70;;;1.90;;
79585;SDS011;69054;50.866;4.636;2023-11-18T13:29:23;2.53;;;1.90;;
79585;SDS011;69054;50.866;4.636;2023-11-18T13:31:49;3.92;;;3.00;;
79585;SDS011;69054;50.866;4.636;2023-11-18T13:34:19;10.23;;;9.32;;
79585;SDS011;69054;50.866;4.636;2023-11-18T13:36:45;2.17;;;1.55;;
79585;SDS011;69054;50.866;4.636;2023-11-18T13:39:16;2.65;;;1.88;;
79585;SDS011;69054;50.866;4.636;2023-11-18T13:41:48;2.28;;;1.42;;
79585;SDS011;69054;50.866;4.636;2023-11-18T13:47:04;4.32;;;1.30;;
79585;SDS011;69054;50.866;4.636;2023-11-18T13:49:36;3.15;;;1.83;;
79585;SDS011;69054;50.866;4.636;2023-11-18T13:52:05;2.47;;;1.73;;
79585;SDS011;69054;50.866;4.636;2023-11-18T13:54:34;2.00;;;1.10;;
79585;SDS011;69054;50.866;4.636;2023-11-18T13:57:00;2.35;;;1.55;;
79585;SDS011;69054;50.866;4.636;2023-11-18T13:59:26;2.10;;;1.30;;
79585;SDS011;69054;50.866;4.636;2023-11-18T14:01:52;2.35;;;1.20;;
79585;SDS011;69054;50.866;4.636;2023-11-18T14:04:21;1.90;;;1.30;;
79585;SDS011;69054;50.866;4.636;2023-11-18T14:06:51;3.88;;;2.90;;
79585;SDS011;69054;50.866;4.636;2023-11-18T14:11:46;2.33;;;1.38;;
79585;SDS011;69054;50.866;4.636;2023-11-18T14:14:14;1.95;;;1.48;;
79585;SDS011;69054;50.866;4.636;2023-11-18T14:16:40;2.90;;;2.47;;
79585;SDS011;69054;50.866;4.636;2023-11-18T14:19:05;2.78;;;2.22;;
79585;SDS011;69054;50.866;4.636;2023-11-18T14:21:31;1.90;;;1.15;;
79585;SDS011;69054;50.866;4.636;2023-11-18T14:23:57;3.60;;;1.42;;
79585;SDS011;69054;50.866;4.636;2023-11-18T14:26:27;4.43;;;2.58;;
79585;SDS011;69054;50.866;4.636;2023-11-18T14:28:52;4.38;;;2.28;;
79585;SDS011;69054;50.866;4.636;2023-11-18T14:31:18;2.42;;;1.95;;
79585;SDS011;69054;50.866;4.636;2023-11-18T14:33:43;2.53;;;1.95;;
79585;SDS011;69054;50.866;4.636;2023-11-18T14:36:09;2.60;;;1.75;;
79585;SDS011;69054;50.866;4.636;2023-11-18T14:38:36;2.42;;;1.65;;
79585;SDS011;69054;50.866;4.636;2023-11-18T14:41:02;2.97;;;1.60;;
79585;SDS011;69054;50.866;4.636;2023-11-18T14:43:29;3.53;;;2.45;;
79585;SDS011;69054;50.866;4.636;2023-11-18T14:45:55;2.40;;;1.40;;
79585;SDS011;69054;50.866;4.636;2023-11-18T14:48:20;3.28;;;1.67;;
79585;SDS011;69054;50.866;4.636;2023-11-18T14:50:46;3.15;;;2.30;;
79585;SDS011;69054;50.866;4.636;2023-11-18T14:53:12;2.22;;;1.60;;
79585;SDS011;69054;50.866;4.636;2023-11-18T14:55:38;2.85;;;1.67;;
79585;SDS011;69054;50.866;4.636;2023-11-18T14:58:04;3.65;;;2.78;;
79585;SDS011;69054;50.866;4.636;2023-11-18T15:00:29;2.50;;;1.42;;
79585;SDS011;69054;50.866;4.636;2023-11-18T15:02:57;2.08;;;1.48;;
79585;SDS011;69054;50.866;4.636;2023-11-18T15:05:23;3.33;;;2.42;;
79585;SDS011;69054;50.866;4.636;2023-11-18T15:07:49;2.38;;;1.30;;
79585;SDS011;69054;50.866;4.636;2023-11-18T15:10:18;3.08;;;2.78;;
79585;SDS011;69054;50.866;4.636;2023-11-18T15:12:48;3.70;;;2.63;;
79585;SDS011;69054;50.866;4.636;2023-11-18T15:15:18;4.82;;;3.22;;
79585;SDS011;69054;50.866;4.636;2023-11-18T15:17:46;2.85;;;1.92;;